createdAt,value
2022-10-11T00:00:39.029Z,100246.72
2022-10-11T00:03:16.873Z,100243.22
2022-10-11T00:05:55.226Z,100248.69
2022-10-11T00:08:34.094Z,100245.06
2022-10-11T00:11:11.532Z,100240.56
2022-10-11T00:13:49.679Z,100241.47
2022-10-11T00:16:28.330Z,100235.44
2022-10-11T00:19:04.743Z,100239.78
2022-10-11T00:21:43.415Z,100226.16
2022-10-11T00:24:21.079Z,100227.94
2022-10-11T00:27:00.340Z,100224.09
2022-10-11T00:29:41.060Z,100233.28
2022-10-11T00:32:18.854Z,100228.81
2022-10-11T00:34:59.811Z,100221.94
2022-10-11T00:37:39.328Z,100224.38
2022-10-11T00:40:20.631Z,100225.13
2022-10-11T00:42:58.118Z,100219.72
2022-10-11T00:45:36.336Z,100221.09
2022-10-11T00:48:23.495Z,100224.03
2022-10-11T00:51:08.065Z,100220.97
2022-10-11T00:53:49.306Z,100219.84
2022-10-11T00:56:31.632Z,100220.63
2022-10-11T00:59:17.089Z,100222.31
2022-10-11T01:01:56.774Z,100219.78
2022-10-11T01:04:36.009Z,100213.63
2022-10-11T01:07:14.163Z,100213.41
2022-10-11T01:09:52.169Z,100218.56
2022-10-11T01:12:31.787Z,100213.94
2022-10-11T01:15:18.651Z,100207.59
2022-10-11T01:18:25.811Z,100222.91
2022-10-11T01:21:18.082Z,100208.38
2022-10-11T01:24:08.851Z,100217.88
2022-10-11T01:27:08.325Z,100220.69
2022-10-11T01:30:34.422Z,100211.31
2022-10-11T01:33:30.882Z,100202.94
2022-10-11T01:36:28.221Z,100210.38
2022-10-11T01:39:13.386Z,100200.50
2022-10-11T01:42:20.244Z,100209.03
2022-10-11T01:44:59.514Z,100198.78
2022-10-11T01:47:39.151Z,100216.94
2022-10-11T01:50:41.901Z,100210.63
2022-10-11T01:53:29.566Z,100202.25
2022-10-11T01:56:39.607Z,100215.72
2022-10-11T01:59:45.415Z,100206.78
2022-10-11T02:02:37.154Z,100211.28
2022-10-11T02:05:27.432Z,100209.06
2022-10-11T02:08:26.812Z,100209.66
2022-10-11T02:11:18.265Z,100204.91
2022-10-11T02:14:06.263Z,100207.59
2022-10-11T02:16:54.906Z,100213.88
2022-10-11T02:19:38.741Z,100213.88
2022-10-11T02:22:26.502Z,100202.56
2022-10-11T02:25:09.491Z,100203.81
2022-10-11T02:27:48.822Z,100206.94
2022-10-11T02:30:27.039Z,100209.44
2022-10-11T02:33:08.668Z,100219.78
2022-10-11T02:35:53.908Z,100229.75
2022-10-11T02:38:41.056Z,100214.75
2022-10-11T02:41:31.262Z,100218.28
2022-10-11T02:44:16.308Z,100220.94
2022-10-11T02:46:55.716Z,100217.56
2022-10-11T02:49:33.297Z,100225.56
2022-10-11T02:52:11.269Z,100220.38
2022-10-11T02:54:50.961Z,100219.00
2022-10-11T02:57:29.709Z,100217.69
2022-10-11T03:00:09.110Z,100219.97
2022-10-11T03:02:48.362Z,100215.03
2022-10-11T03:05:26.942Z,100223.47
2022-10-11T03:08:05.316Z,100222.94
2022-10-11T03:10:44.463Z,100222.94
2022-10-11T03:13:23.156Z,100221.69
2022-10-11T03:16:11.994Z,100223.22
2022-10-11T03:18:50.042Z,100220.84
2022-10-11T03:21:28.235Z,100217.06
2022-10-11T03:24:06.685Z,100210.88
2022-10-11T03:26:44.752Z,100210.50
2022-10-11T03:29:22.719Z,100206.72
2022-10-11T03:32:03.149Z,100211.38
2022-10-11T03:34:40.869Z,100205.75
2022-10-11T03:37:20.242Z,100211.19
2022-10-11T03:39:58.673Z,100210.94
2022-10-11T03:42:39.162Z,100207.16
2022-10-11T03:45:17.879Z,100203.25
2022-10-11T03:47:56.552Z,100204.53
2022-10-11T03:50:36.496Z,100192.91
2022-10-11T03:53:15.617Z,100191.22
2022-10-11T03:55:55.746Z,100190.25
2022-10-11T03:58:35.991Z,100194.13
2022-10-11T04:01:14.479Z,100192.50
2022-10-11T04:03:55.913Z,100193.19
2022-10-11T04:06:34.407Z,100179.03
2022-10-11T04:09:12.315Z,100180.22
2022-10-11T04:11:53.331Z,100175.94
2022-10-11T04:14:32.549Z,100180.72
2022-10-11T04:17:11.702Z,100193.28
2022-10-11T04:19:50.244Z,100179.69
2022-10-11T04:22:42.306Z,100182.38
2022-10-11T04:25:22.003Z,100190.03
2022-10-11T04:28:01.892Z,100193.25
2022-10-11T04:30:40.667Z,100190.44
2022-10-11T04:33:19.820Z,100198.81
2022-10-11T04:35:58.581Z,100187.97
2022-10-11T04:38:36.879Z,100201.41
2022-10-11T04:41:16.774Z,100196.53
2022-10-11T04:43:54.934Z,100194.72
2022-10-11T04:46:33.046Z,100194.56
2022-10-11T04:49:12.044Z,100189.81
2022-10-11T04:51:51.207Z,100192.75
2022-10-11T04:54:30.494Z,100179.66
2022-10-11T04:57:09.073Z,100181.13
2022-10-11T04:59:50.141Z,100183.78
2022-10-11T05:02:28.856Z,100190.25
2022-10-11T05:05:10.567Z,100192.56
2022-10-11T05:08:01.791Z,100189.56
2022-10-11T05:10:40.142Z,100188.94
2022-10-11T05:13:18.788Z,100181.84
2022-10-11T05:16:11.862Z,100191.91
2022-10-11T05:18:52.578Z,100182.41
2022-10-11T05:21:36.253Z,100189.34
2022-10-11T05:24:15.422Z,100190.47
2022-10-11T05:26:54.476Z,100190.03
2022-10-11T05:29:32.145Z,100180.22
2022-10-11T05:32:13.059Z,100191.63
2022-10-11T05:34:52.783Z,100181.91
2022-10-11T05:37:31.975Z,100189.91
2022-10-11T05:40:13.301Z,100178.88
2022-10-11T05:42:50.973Z,100177.50
2022-10-11T05:45:29.348Z,100179.28
2022-10-11T05:48:08.233Z,100175.75
2022-10-11T05:50:48.425Z,100173.59
2022-10-11T05:53:27.292Z,100182.25
2022-10-11T05:56:23.314Z,100184.44
2022-10-11T05:59:02.491Z,100175.16
2022-10-11T06:01:45.216Z,100179.03
2022-10-11T06:04:24.011Z,100165.69
2022-10-11T06:07:02.181Z,100166.31
2022-10-11T06:09:40.424Z,100164.00
2022-10-11T06:12:19.006Z,100160.56
2022-10-11T06:15:28.667Z,100156.16
2022-10-11T06:18:28.538Z,100166.31
2022-10-11T06:21:24.154Z,100158.88
2022-10-11T06:24:15.923Z,100149.72
2022-10-11T06:27:26.376Z,100151.50
2022-10-11T06:30:30.304Z,100150.31
2022-10-11T06:33:26.002Z,100152.69
2022-10-11T06:36:24.038Z,100145.91
2022-10-11T06:39:15.761Z,100152.09
2022-10-11T06:42:13.657Z,100144.25
2022-10-11T06:45:09.282Z,100139.47
2022-10-11T06:48:06.018Z,100148.56
2022-10-11T06:51:30.394Z,100153.56
2022-10-11T06:54:26.201Z,100150.06
2022-10-11T06:57:17.582Z,100148.59
2022-10-11T07:00:25.304Z,100149.44
2022-10-11T07:03:20.010Z,100152.16
2022-10-11T07:06:19.741Z,100151.72
2022-10-11T07:09:21.005Z,100143.72
2022-10-11T07:12:17.223Z,100152.97
2022-10-11T07:15:14.381Z,100148.38
2022-10-11T07:18:10.542Z,100142.16
2022-10-11T07:21:05.877Z,100130.31
2022-10-11T07:24:03.563Z,100148.13
2022-10-11T07:27:10.110Z,100145.13
2022-10-11T07:30:06.116Z,100142.09
2022-10-11T07:33:04.566Z,100144.31
2022-10-11T07:35:58.546Z,100145.19
2022-10-11T07:42:10.043Z,100135.09
2022-10-11T07:45:09.530Z,100132.50
2022-10-11T07:48:04.688Z,100130.53
2022-10-11T07:51:16.554Z,100133.03
2022-10-11T07:54:20.574Z,100133.44
2022-10-11T07:57:22.316Z,100124.91
2022-10-11T08:00:29.458Z,100127.63
2022-10-11T08:03:43.287Z,100127.63
2022-10-11T08:06:43.380Z,100108.25
2022-10-11T08:09:49.908Z,100125.59
2022-10-11T08:12:47.801Z,100131.88
2022-10-11T08:15:43.540Z,100119.28
2022-10-11T08:18:44.325Z,100113.53
2022-10-11T08:21:39.700Z,100126.28
2022-10-11T08:24:42.506Z,100116.75
2022-10-11T08:27:40.744Z,100097.22
2022-10-11T08:30:37.274Z,100102.19
2022-10-11T08:33:33.026Z,100111.41
2022-10-11T08:36:40.805Z,100090.75
2022-10-11T08:39:48.950Z,100106.72
2022-10-11T08:43:08.418Z,100102.22
2022-10-11T08:46:12.365Z,100098.94
2022-10-11T08:49:09.835Z,100098.31
2022-10-11T08:52:07.915Z,100096.69
2022-10-11T08:54:46.228Z,100091.16
2022-10-11T08:57:42.967Z,100081.88
2022-10-11T09:00:15.545Z,100087.88
2022-10-11T09:03:19.815Z,100081.47
2022-10-11T09:06:13.567Z,100058.38
2022-10-11T09:09:18.926Z,100078.28
2022-10-11T09:12:14.637Z,100071.06
2022-10-11T09:15:21.382Z,100068.81
2022-10-11T09:18:27.578Z,100057.84
2022-10-11T09:21:16.555Z,100054.94
2022-10-11T09:24:21.050Z,100054.69
2022-10-11T09:27:02.789Z,100062.09
2022-10-11T09:29:54.617Z,100055.16
2022-10-11T09:32:31.408Z,100047.34
2022-10-11T09:35:15.970Z,100043.88
2022-10-11T09:37:56.109Z,100041.94
2022-10-11T09:40:53.865Z,100040.25
2022-10-11T09:43:24.877Z,100029.16
2022-10-11T09:45:52.899Z,100029.53
2022-10-11T09:48:27.758Z,100033.84
2022-10-11T09:51:05.341Z,100017.56
2022-10-11T09:53:53.062Z,100018.22
2022-10-11T09:56:25.520Z,100015.84
2022-10-11T09:59:48.477Z,100020.16
2022-10-11T10:02:24.602Z,100016.56
2022-10-11T10:04:57.643Z,100013.38
2022-10-11T10:07:39.587Z,100006.94
2022-10-11T10:10:25.395Z,100008.94
2022-10-11T10:13:00.665Z,100010.19
2022-10-11T10:15:34.574Z,100002.16
2022-10-11T10:18:02.917Z,100002.22
2022-10-11T10:20:35.429Z,100005.09
2022-10-11T10:23:20.752Z,99997.78
2022-10-11T10:25:52.301Z,99990.59
2022-10-11T10:28:21.423Z,99989.22
2022-10-11T10:31:01.799Z,99987.41
2022-10-11T10:33:34.850Z,99983.66
2022-10-11T10:36:18.998Z,99981.78
2022-10-11T10:38:56.418Z,99974.25
2022-10-11T10:41:23.342Z,99966.31
2022-10-11T10:43:55.675Z,99973.91
2022-10-11T10:46:51.796Z,99970.75
2022-10-11T10:49:54.078Z,99967.78
2022-10-11T10:52:48.047Z,99964.69
2022-10-11T10:55:39.894Z,99957.31
2022-10-11T10:59:00.479Z,99957.72
2022-10-11T11:01:30.901Z,99946.53
2022-10-11T11:04:26.971Z,99941.72
2022-10-11T11:07:22.541Z,99941.25
2022-10-11T11:09:59.055Z,99948.13
2022-10-11T11:12:46.467Z,99937.31
2022-10-11T11:15:19.770Z,99936.53
2022-10-11T11:18:28.591Z,99934.69
2022-10-11T11:21:30.436Z,99936.75
2022-10-11T11:24:13.555Z,99929.63
2022-10-11T11:27:12.787Z,99931.72
2022-10-11T11:30:05.187Z,99917.59
2022-10-11T11:32:32.265Z,99921.31
2022-10-11T11:35:10.007Z,99910.34
2022-10-11T11:37:44.547Z,99914.84
2022-10-11T11:40:31.587Z,99913.41
2022-10-11T11:43:11.467Z,99898.41
2022-10-11T11:45:55.122Z,99906.47
2022-10-11T11:48:25.254Z,99897.84
2022-10-11T11:51:17.847Z,99902.03
2022-10-11T11:54:06.592Z,99898.97
2022-10-11T11:56:57.202Z,99902.06
2022-10-11T12:00:10.036Z,99889.59
2022-10-11T12:03:08.297Z,99892.91
2022-10-11T12:05:36.392Z,99892.50
2022-10-11T12:08:03.580Z,99885.88
2022-10-11T12:10:40.095Z,99890.44
2022-10-11T12:13:19.944Z,99890.00
2022-10-11T12:16:14.666Z,99880.03
2022-10-11T12:19:13.595Z,99875.88
2022-10-11T12:22:27.754Z,99880.41
2022-10-11T12:25:21.990Z,99873.75
2022-10-11T12:27:53.080Z,99875.84
2022-10-11T12:30:49.405Z,99866.47
2022-10-11T12:33:38.332Z,99870.78
2022-10-11T12:36:43.906Z,99862.06
2022-10-11T12:39:22.961Z,99863.25
2022-10-11T12:41:50.102Z,99859.09
2022-10-11T12:44:27.777Z,99861.97
2022-10-11T12:47:00.822Z,99861.72
2022-10-11T12:49:36.857Z,99850.34
2022-10-11T12:52:49.060Z,99855.28
2022-10-11T12:55:46.147Z,99850.91
2022-10-11T12:58:26.331Z,99856.00
2022-10-11T13:00:55.335Z,99852.28
2022-10-11T13:03:34.778Z,99850.38
2022-10-11T13:06:25.921Z,99844.31
2022-10-11T13:08:59.577Z,99842.47
2022-10-11T13:11:35.004Z,99841.81
2022-10-11T13:14:19.543Z,99840.59
2022-10-11T13:17:00.152Z,99834.34
2022-10-11T13:19:29.057Z,99834.53
2022-10-11T13:22:02.908Z,99828.16
2022-10-11T13:24:37.999Z,99835.16
2022-10-11T13:27:07.633Z,99829.34
2022-10-11T13:29:41.394Z,99828.84
2022-10-11T13:32:18.043Z,99830.13
2022-10-11T13:34:49.818Z,99828.84
2022-10-11T13:37:19.987Z,99830.91
2022-10-11T13:39:51.505Z,99828.41
2022-10-11T13:42:19.952Z,99822.59
2022-10-11T13:44:47.732Z,99827.13
2022-10-11T13:47:18.443Z,99826.31
2022-10-11T13:49:48.405Z,99824.25
2022-10-11T13:52:18.042Z,99822.59
2022-10-11T13:55:00.763Z,99836.16
2022-10-11T13:57:36.804Z,99834.13
2022-10-11T14:00:53.225Z,99838.25
2022-10-11T14:03:21.955Z,99836.13
2022-10-11T14:06:00.165Z,99829.41
2022-10-11T14:08:50.356Z,99832.88
2022-10-11T14:11:35.054Z,99837.53
2022-10-11T14:14:38.070Z,99835.19
2022-10-11T14:17:10.835Z,99831.59
2022-10-11T14:19:38.211Z,99825.31
2022-10-11T14:22:07.442Z,99827.50
2022-10-11T14:24:34.441Z,99824.53
2022-10-11T14:27:06.012Z,99830.50
2022-10-11T14:29:39.669Z,99837.91
2022-10-11T14:32:10.940Z,99827.47
2022-10-11T14:34:38.251Z,99824.16
2022-10-11T14:37:05.317Z,99839.34
2022-10-11T14:39:33.363Z,99833.91
2022-10-11T14:42:03.799Z,99844.19
2022-10-11T14:44:30.841Z,99841.44
2022-10-11T14:46:58.024Z,99836.16
2022-10-11T14:49:27.308Z,99840.69
2022-10-11T14:51:56.767Z,99842.47
2022-10-11T14:54:26.373Z,99843.00
2022-10-11T14:56:55.458Z,99841.91
2022-10-11T14:59:28.337Z,99845.78
2022-10-11T15:01:55.465Z,99846.50
2022-10-11T15:04:25.375Z,99848.09
2022-10-11T15:06:54.801Z,99849.81
2022-10-11T15:09:22.886Z,99853.53
2022-10-11T15:11:51.713Z,99842.50
2022-10-11T15:14:18.726Z,99841.69
2022-10-11T15:16:45.820Z,99841.69
2022-10-11T15:19:19.033Z,99847.63
2022-10-11T15:21:46.663Z,99845.31
2022-10-11T15:24:14.506Z,99839.28
2022-10-11T15:26:42.492Z,99849.53
2022-10-11T15:29:11.896Z,99849.34
2022-10-11T15:31:39.748Z,99852.22
2022-10-11T15:34:07.024Z,99843.25
2022-10-11T15:36:34.915Z,99851.66
2022-10-11T15:39:02.358Z,99849.59
2022-10-11T15:41:32.030Z,99852.47
2022-10-11T15:43:59.592Z,99844.44
2022-10-11T15:46:41.420Z,99846.47
2022-10-11T15:49:14.787Z,99852.47
2022-10-11T15:51:41.978Z,99843.78
2022-10-11T15:54:09.387Z,99844.81
2022-10-11T15:56:36.466Z,99849.50
2022-10-11T15:59:03.900Z,99842.50
2022-10-11T16:01:31.122Z,99845.81
2022-10-11T16:03:58.346Z,99845.81
2022-10-11T16:06:25.418Z,99856.88
2022-10-11T16:08:52.722Z,99847.75
2022-10-11T16:11:19.801Z,99850.59
2022-10-11T16:13:47.697Z,99855.28
2022-10-11T16:16:14.966Z,99849.66
2022-10-11T16:18:42.382Z,99849.56
2022-10-11T16:21:14.735Z,99855.75
2022-10-11T16:23:42.124Z,99864.13
2022-10-11T16:26:13.695Z,99858.13
2022-10-11T16:28:42.094Z,99857.66
2022-10-11T16:31:11.925Z,99854.31
2022-10-11T16:33:48.171Z,99855.03
2022-10-11T16:36:37.102Z,99853.56
2022-10-11T16:39:12.362Z,99845.91
2022-10-11T16:41:39.916Z,99850.94
2022-10-11T16:44:11.767Z,99843.06
2022-10-11T16:46:38.841Z,99843.75
2022-10-11T16:49:06.400Z,99846.09
2022-10-11T16:51:34.336Z,99846.47
2022-10-11T16:54:01.411Z,99841.97
2022-10-11T16:56:30.036Z,99841.97
2022-10-11T16:58:59.344Z,99839.16
2022-10-11T17:01:26.695Z,99837.97
2022-10-11T17:03:54.001Z,99841.66
2022-10-11T17:06:21.081Z,99834.34
2022-10-11T17:08:48.232Z,99819.00
2022-10-11T17:11:19.000Z,99835.88
2022-10-11T17:13:48.263Z,99829.69
2022-10-11T17:16:16.597Z,99827.38
2022-10-11T17:18:44.009Z,99819.59
2022-10-11T17:21:16.484Z,99825.06
2022-10-11T17:23:44.205Z,99819.75
2022-10-11T17:26:18.917Z,99822.78
2022-10-11T17:28:46.550Z,99823.13
2022-10-11T17:31:16.357Z,99833.31
2022-10-11T17:33:43.363Z,99816.66
2022-10-11T17:36:17.963Z,99819.97
2022-10-11T17:38:45.598Z,99818.13
2022-10-11T17:41:15.980Z,99808.50
2022-10-11T17:43:43.617Z,99813.34
2022-10-11T17:46:12.572Z,99810.66
2022-10-11T17:48:39.780Z,99805.84
2022-10-11T17:51:12.036Z,99807.50
2022-10-11T17:53:39.557Z,99800.03
2022-10-11T17:56:17.594Z,99804.53
2022-10-11T17:58:47.517Z,99815.56
2022-10-11T18:01:19.903Z,99796.09
2022-10-11T18:03:57.178Z,99809.59
2022-10-11T18:06:26.805Z,99812.06
2022-10-11T18:08:53.889Z,99810.56
2022-10-11T18:11:22.054Z,99813.25
2022-10-11T18:13:52.061Z,99804.25
2022-10-11T18:16:30.332Z,99801.94
2022-10-11T18:18:59.111Z,99810.97
2022-10-11T18:21:31.347Z,99785.78
2022-10-11T18:24:02.713Z,99799.31
2022-10-11T18:26:30.923Z,99798.13
2022-10-11T18:28:58.945Z,99806.66
2022-10-11T18:31:33.791Z,99804.81
2022-10-11T18:34:05.040Z,99799.34
2022-10-11T18:36:33.564Z,99788.19
2022-10-11T18:39:04.215Z,99796.00
2022-10-11T18:41:32.770Z,99793.31
2022-10-11T18:44:02.497Z,99796.00
2022-10-11T18:46:29.743Z,99792.34
2022-10-11T18:48:58.722Z,99791.34
2022-10-11T18:51:33.564Z,99790.38
2022-10-11T18:56:42.136Z,99776.00
2022-10-11T18:59:13.416Z,99779.50
2022-10-11T19:01:57.551Z,99787.72
2022-10-11T19:04:28.667Z,99776.69
2022-10-11T19:07:01.365Z,99767.84
2022-10-11T19:09:29.012Z,99773.69
2022-10-11T19:12:01.179Z,99776.34
2022-10-11T19:14:30.268Z,99773.19
2022-10-11T19:16:57.904Z,99768.03
2022-10-11T19:19:29.179Z,99772.25
2022-10-11T19:21:56.616Z,99775.53
2022-10-11T19:24:26.757Z,99765.75
2022-10-11T19:26:57.367Z,99761.91
2022-10-11T19:29:40.061Z,99760.06
2022-10-11T19:32:07.155Z,99767.03
2022-10-11T19:34:34.520Z,99762.53
2022-10-11T19:37:03.685Z,99760.06
2022-10-11T19:39:31.046Z,99751.22
2022-10-11T19:42:01.112Z,99763.22
2022-10-11T19:44:28.349Z,99767.41
2022-10-11T19:47:04.198Z,99762.25
2022-10-11T19:49:32.646Z,99764.56
2022-10-11T19:52:01.181Z,99772.25
2022-10-11T19:54:30.654Z,99772.75
2022-10-11T19:56:57.795Z,99772.09
2022-10-11T19:59:25.354Z,99773.91
2022-10-11T20:01:53.429Z,99779.09
2022-10-11T20:04:47.446Z,99769.25
2022-10-11T20:07:14.546Z,99766.56
2022-10-11T20:09:41.553Z,99765.06
2022-10-11T20:12:08.809Z,99763.75
2022-10-11T20:14:35.989Z,99762.94
2022-10-11T20:17:05.467Z,99767.78
2022-10-11T20:19:34.906Z,99757.78
2022-10-11T20:22:02.109Z,99752.94
2022-10-11T20:24:35.548Z,99758.13
2022-10-11T20:27:27.396Z,99757.94
2022-10-11T20:29:54.627Z,99748.63
2022-10-11T20:32:21.673Z,99753.13
2022-10-11T20:34:48.677Z,99739.78
2022-10-11T20:37:15.758Z,99754.16
2022-10-11T20:39:42.941Z,99747.50
2022-10-11T20:42:10.194Z,99746.34
2022-10-11T20:44:37.221Z,99741.00
2022-10-11T20:47:04.440Z,99750.13
2022-10-11T20:49:31.713Z,99751.81
2022-10-11T20:51:58.801Z,99751.81
2022-10-11T20:54:25.985Z,99749.50
2022-10-11T20:56:53.008Z,99746.66
2022-10-11T20:59:20.084Z,99746.81
2022-10-11T21:01:47.511Z,99745.31
2022-10-11T21:04:18.898Z,99737.16
2022-10-11T21:06:48.055Z,99740.47
2022-10-11T21:09:17.013Z,99727.47
2022-10-11T21:11:44.522Z,99739.16
2022-10-11T21:14:11.653Z,99732.50
2022-10-11T21:16:38.591Z,99730.31
2022-10-11T21:19:08.874Z,99733.66
2022-10-11T21:21:36.216Z,99725.16
2022-10-11T21:24:04.378Z,99725.81
2022-10-11T21:26:31.593Z,99728.34
2022-10-11T21:29:04.009Z,99727.84
2022-10-11T21:31:34.278Z,99727.84
2022-10-11T21:34:02.600Z,99731.53
2022-10-11T21:36:29.724Z,99734.34
2022-10-11T21:38:56.783Z,99733.50
2022-10-11T21:41:30.230Z,99731.00
2022-10-11T21:43:58.443Z,99723.84
2022-10-11T21:47:01.156Z,99723.84
2022-10-11T21:49:16.583Z,99728.03
2022-10-11T21:51:43.661Z,99721.53
2022-10-11T21:54:10.694Z,99719.88
2022-10-11T21:56:41.272Z,99714.88
2022-10-11T21:59:11.243Z,99725.53
2022-10-11T22:01:43.269Z,99720.84
2022-10-11T22:04:11.246Z,99715.19
2022-10-11T22:06:39.066Z,99717.53
2022-10-11T22:09:07.753Z,99718.19
2022-10-11T22:11:35.361Z,99710.34
2022-10-11T22:14:04.069Z,99710.50
2022-10-11T22:16:33.910Z,99710.50
2022-10-11T22:19:01.072Z,99716.53
2022-10-11T22:21:28.219Z,99713.38
2022-10-11T22:23:57.715Z,99720.84
2022-10-11T22:26:27.738Z,99716.03
2022-10-11T22:28:54.791Z,99714.19
2022-10-11T22:31:22.505Z,99717.19
2022-10-11T22:33:53.576Z,99714.19
2022-10-11T22:36:20.938Z,99712.69
2022-10-11T22:38:47.882Z,99700.50
2022-10-11T22:41:15.014Z,99704.00
2022-10-11T22:43:42.060Z,99709.53
2022-10-11T22:46:09.898Z,99709.88
2022-10-11T22:48:37.577Z,99706.19
2022-10-11T22:51:06.841Z,99704.69
2022-10-11T22:53:34.237Z,99699.53
2022-10-11T22:56:01.530Z,99701.53
2022-10-11T22:58:28.655Z,99701.69
2022-10-11T23:01:00.286Z,99706.19
2022-10-11T23:03:27.462Z,99698.34
2022-10-11T23:05:58.163Z,99702.69
2022-10-11T23:08:25.802Z,99697.53
2022-10-11T23:10:53.003Z,99697.19
2022-10-11T23:13:22.893Z,99694.84
2022-10-11T23:15:49.998Z,99707.16
2022-10-11T23:18:16.982Z,99704.47
2022-10-11T23:20:51.361Z,99700.66
2022-10-11T23:23:23.148Z,99708.66
2022-10-11T23:26:00.569Z,99698.00
2022-10-11T23:28:27.782Z,99695.47
2022-10-11T23:30:54.827Z,99686.81
2022-10-11T23:33:21.841Z,99692.81
2022-10-11T23:35:48.689Z,99698.16
2022-10-11T23:38:15.725Z,99694.13
2022-10-11T23:40:42.940Z,99690.31
2022-10-11T23:43:10.016Z,99689.81
2022-10-11T23:45:37.182Z,99684.13
2022-10-11T23:48:04.801Z,99687.66
2022-10-11T23:50:31.793Z,99684.81
2022-10-11T23:52:58.893Z,99691.97
2022-10-11T23:55:26.010Z,99691.09
2022-10-11T23:57:53.094Z,99696.75
